sensor_id;sensor_type;location;lat;lon;timestamp;temperature;humidity
13960;DHT22;7052;51.050;3.716;2023-11-18T00:00:52;7.20;99.90
13960;DHT22;7052;51.050;3.716;2023-11-18T00:03:24;7.30;99.90
13960;DHT22;7052;51.050;3.716;2023-11-18T00:05:55;7.20;99.90
13960;DHT22;7052;51.050;3.716;2023-11-18T00:08:24;7.20;99.90
13960;DHT22;7052;51.050;3.716;2023-11-18T00:10:51;7.20;99.90
13960;DHT22;7052;51.050;3.716;2023-11-18T00:13:22;7.20;99.90
13960;DHT22;7052;51.050;3.716;2023-11-18T00:15:50;7.20;99.90
13960;DHT22;7052;51.050;3.716;2023-11-18T00:18:28;7.20;99.90
13960;DHT22;7052;51.050;3.716;2023-11-18T00:21:00;7.20;99.90
13960;DHT22;7052;51.050;3.716;2023-11-18T00:23:41;7.20;99.90
13960;DHT22;7052;51.050;3.716;2023-11-18T00:26:19;7.20;99.90
13960;DHT22;7052;51.050;3.716;2023-11-18T00:29:15;7.20;99.90
13960;DHT22;7052;51.050;3.716;2023-11-18T00:31:46;7.30;99.90
13960;DHT22;7052;51.050;3.716;2023-11-18T00:34:34;7.40;99.90
13960;DHT22;7052;51.050;3.716;2023-11-18T00:37:04;7.30;99.90
13960;DHT22;7052;51.050;3.716;2023-11-18T00:39:42;7.30;99.90
13960;DHT22;7052;51.050;3.716;2023-11-18T00:42:13;7.30;99.90
13960;DHT22;7052;51.050;3.716;2023-11-18T00:44:48;7.40;99.90
13960;DHT22;7052;51.050;3.716;2023-11-18T00:47:22;7.30;99.90
13960;DHT22;7052;51.050;3.716;2023-11-18T00:49:56;7.30;99.90
13960;DHT22;7052;51.050;3.716;2023-11-18T00:52:29;7.40;99.90
13960;DHT22;7052;51.050;3.716;2023-11-18T00:54:59;7.30;99.90
13960;DHT22;7052;51.050;3.716;2023-11-18T00:57:40;7.30;99.90
13960;DHT22;7052;51.050;3.716;2023-11-18T01:00:13;7.30;99.90
13960;DHT22;7052;51.050;3.716;2023-11-18T01:03:10;7.30;99.90
13960;DHT22;7052;51.050;3.716;2023-11-18T01:06:00;7.30;99.90
13960;DHT22;7052;51.050;3.716;2023-11-18T01:08:34;7.30;99.90
13960;DHT22;7052;51.050;3.716;2023-11-18T01:11:19;7.30;99.90
13960;DHT22;7052;51.050;3.716;2023-11-18T01:14:15;7.30;99.90
13960;DHT22;7052;51.050;3.716;2023-11-18T01:16:43;7.30;99.90
13960;DHT22;7052;51.050;3.716;2023-11-18T01:19:14;7.30;99.90
13960;DHT22;7052;51.050;3.716;2023-11-18T01:21:45;7.40;99.90
13960;DHT22;7052;51.050;3.716;2023-11-18T01:24:12;7.30;99.90
13960;DHT22;7052;51.050;3.716;2023-11-18T01:26:39;7.30;99.90
13960;DHT22;7052;51.050;3.716;2023-11-18T01:29:06;7.30;99.90
13960;DHT22;7052;51.050;3.716;2023-11-18T01:31:33;7.30;99.90
13960;DHT22;7052;51.050;3.716;2023-11-18T01:34:02;7.30;99.90
13960;DHT22;7052;51.050;3.716;2023-11-18T01:36:30;7.30;99.90
13960;DHT22;7052;51.050;3.716;2023-11-18T01:39:00;7.40;99.90
13960;DHT22;7052;51.050;3.716;2023-11-18T01:41:27;7.30;99.90
13960;DHT22;7052;51.050;3.716;2023-11-18T01:43:58;7.40;99.90
13960;DHT22;7052;51.050;3.716;2023-11-18T01:46:26;7.40;99.90
13960;DHT22;7052;51.050;3.716;2023-11-18T01:48:53;7.40;99.90
13960;DHT22;7052;51.050;3.716;2023-11-18T01:51:22;7.40;99.90
13960;DHT22;7052;51.050;3.716;2023-11-18T01:53:49;7.40;99.90
13960;DHT22;7052;51.050;3.716;2023-11-18T01:56:18;7.40;99.90
13960;DHT22;7052;51.050;3.716;2023-11-18T01:58:50;7.40;99.90
13960;DHT22;7052;51.050;3.716;2023-11-18T02:01:18;7.40;99.90
13960;DHT22;7052;51.050;3.716;2023-11-18T02:03:48;7.40;99.90
13960;DHT22;7052;51.050;3.716;2023-11-18T02:06:20;7.50;99.90
13960;DHT22;7052;51.050;3.716;2023-11-18T02:08:49;7.40;99.90
13960;DHT22;7052;51.050;3.716;2023-11-18T02:11:29;7.40;99.90
13960;DHT22;7052;51.050;3.716;2023-11-18T02:14:02;7.50;99.90
13960;DHT22;7052;51.050;3.716;2023-11-18T02:16:31;7.50;99.90
13960;DHT22;7052;51.050;3.716;2023-11-18T02:19:03;7.50;99.90
13960;DHT22;7052;51.050;3.716;2023-11-18T02:21:36;7.50;99.90
13960;DHT22;7052;51.050;3.716;2023-11-18T02:24:04;7.50;99.90
13960;DHT22;7052;51.050;3.716;2023-11-18T02:26:33;7.50;99.90
13960;DHT22;7052;51.050;3.716;2023-11-18T02:29:06;7.50;99.90
13960;DHT22;7052;51.050;3.716;2023-11-18T02:31:35;7.50;99.90
13960;DHT22;7052;51.050;3.716;2023-11-18T02:34:07;7.50;99.90
13960;DHT22;7052;51.050;3.716;2023-11-18T02:36:44;7.70;99.90
13960;DHT22;7052;51.050;3.716;2023-11-18T02:39:21;7.50;99.90
13960;DHT22;7052;51.050;3.716;2023-11-18T02:41:52;7.50;99.90
13960;DHT22;7052;51.050;3.716;2023-11-18T02:44:25;7.50;99.90
13960;DHT22;7052;51.050;3.716;2023-11-18T02:46:52;7.50;99.90
13960;DHT22;7052;51.050;3.716;2023-11-18T02:49:25;7.50;99.90
13960;DHT22;7052;51.050;3.716;2023-11-18T02:51:52;7.50;99.90
13960;DHT22;7052;51.050;3.716;2023-11-18T02:54:20;7.50;99.90
13960;DHT22;7052;51.050;3.716;2023-11-18T02:56:53;7.50;99.90
13960;DHT22;7052;51.050;3.716;2023-11-18T02:59:20;7.70;99.90
13960;DHT22;7052;51.050;3.716;2023-11-18T03:01:54;7.50;99.90
13960;DHT22;7052;51.050;3.716;2023-11-18T03:04:31;7.50;99.90
13960;DHT22;7052;51.050;3.716;2023-11-18T03:06:58;7.50;99.90
13960;DHT22;7052;51.050;3.716;2023-11-18T03:09:26;7.50;99.90
13960;DHT22;7052;51.050;3.716;2023-11-18T03:12:01;7.50;99.90
13960;DHT22;7052;51.050;3.716;2023-11-18T03:14:28;7.50;99.90
13960;DHT22;7052;51.050;3.716;2023-11-18T03:16:55;7.60;99.90
13960;DHT22;7052;51.050;3.716;2023-11-18T03:19:25;7.50;99.90
13960;DHT22;7052;51.050;3.716;2023-11-18T03:21:52;7.50;99.90
13960;DHT22;7052;51.050;3.716;2023-11-18T03:24:20;7.50;99.90
13960;DHT22;7052;51.050;3.716;2023-11-18T03:26:47;7.50;99.90
13960;DHT22;7052;51.050;3.716;2023-11-18T03:29:22;7.50;99.90
13960;DHT22;7052;51.050;3.716;2023-11-18T03:31:49;7.50;99.90
13960;DHT22;7052;51.050;3.716;2023-11-18T03:34:16;7.50;99.90
13960;DHT22;7052;51.050;3.716;2023-11-18T03:36:45;7.90;99.90
13960;DHT22;7052;51.050;3.716;2023-11-18T03:39:12;7.60;99.90
13960;DHT22;7052;51.050;3.716;2023-11-18T03:41:43;7.50;99.90
13960;DHT22;7052;51.050;3.716;2023-11-18T03:44:12;7.60;99.90
13960;DHT22;7052;51.050;3.716;2023-11-18T03:46:43;7.50;99.90
13960;DHT22;7052;51.050;3.716;2023-11-18T03:49:14;7.50;99.90
13960;DHT22;7052;51.050;3.716;2023-11-18T03:51:43;7.60;99.90
13960;DHT22;7052;51.050;3.716;2023-11-18T03:54:25;7.60;99.90
13960;DHT22;7052;51.050;3.716;2023-11-18T03:56:52;7.60;99.90
13960;DHT22;7052;51.050;3.716;2023-11-18T03:59:19;7.60;99.90
13960;DHT22;7052;51.050;3.716;2023-11-18T04:01:48;7.60;99.90
13960;DHT22;7052;51.050;3.716;2023-11-18T04:04:17;7.60;99.90
13960;DHT22;7052;51.050;3.716;2023-11-18T04:06:46;7.60;99.90
13960;DHT22;7052;51.050;3.716;2023-11-18T04:09:14;7.60;99.90
13960;DHT22;7052;51.050;3.716;2023-11-18T04:11:41;7.60;99.90
13960;DHT22;7052;51.050;3.716;2023-11-18T04:14:11;7.60;99.90
13960;DHT22;7052;51.050;3.716;2023-11-18T04:16:38;7.60;99.90
13960;DHT22;7052;51.050;3.716;2023-11-18T04:19:07;7.60;99.90
13960;DHT22;7052;51.050;3.716;2023-11-18T04:21:37;7.60;99.90
13960;DHT22;7052;51.050;3.716;2023-11-18T04:24:06;7.70;99.90
13960;DHT22;7052;51.050;3.716;2023-11-18T04:26:33;7.70;99.90
13960;DHT22;7052;51.050;3.716;2023-11-18T04:29:01;7.70;99.90
13960;DHT22;7052;51.050;3.716;2023-11-18T04:31:29;7.80;99.90
13960;DHT22;7052;51.050;3.716;2023-11-18T04:33:58;7.80;99.90
13960;DHT22;7052;51.050;3.716;2023-11-18T04:36:28;7.80;99.90
13960;DHT22;7052;51.050;3.716;2023-11-18T04:38:57;7.80;99.90
13960;DHT22;7052;51.050;3.716;2023-11-18T04:41:24;7.80;99.90
13960;DHT22;7052;51.050;3.716;2023-11-18T04:43:51;7.90;99.90
13960;DHT22;7052;51.050;3.716;2023-11-18T04:46:19;7.80;99.90
13960;DHT22;7052;51.050;3.716;2023-11-18T04:48:49;7.80;99.90
13960;DHT22;7052;51.050;3.716;2023-11-18T04:51:16;7.90;99.90
13960;DHT22;7052;51.050;3.716;2023-11-18T04:53:45;7.90;99.90
13960;DHT22;7052;51.050;3.716;2023-11-18T04:56:16;7.90;99.90
13960;DHT22;7052;51.050;3.716;2023-11-18T04:58:46;7.90;99.90
13960;DHT22;7052;51.050;3.716;2023-11-18T05:01:14;8.00;99.90
13960;DHT22;7052;51.050;3.716;2023-11-18T05:03:41;7.90;99.90
13960;DHT22;7052;51.050;3.716;2023-11-18T05:06:09;7.90;99.90
13960;DHT22;7052;51.050;3.716;2023-11-18T05:08:37;8.00;99.90
13960;DHT22;7052;51.050;3.716;2023-11-18T05:11:06;8.00;99.90
13960;DHT22;7052;51.050;3.716;2023-11-18T05:13:40;8.00;99.90
13960;DHT22;7052;51.050;3.716;2023-11-18T05:16:08;8.00;99.90
13960;DHT22;7052;51.050;3.716;2023-11-18T05:18:38;7.90;99.90
13960;DHT22;7052;51.050;3.716;2023-11-18T05:21:07;8.00;99.90
13960;DHT22;7052;51.050;3.716;2023-11-18T05:23:34;7.90;99.90
13960;DHT22;7052;51.050;3.716;2023-11-18T05:26:01;8.00;99.90
13960;DHT22;7052;51.050;3.716;2023-11-18T05:28:33;8.00;99.90
13960;DHT22;7052;51.050;3.716;2023-11-18T05:31:04;8.00;99.90
13960;DHT22;7052;51.050;3.716;2023-11-18T05:33:31;8.00;99.90
13960;DHT22;7052;51.050;3.716;2023-11-18T05:36:01;8.00;99.90
13960;DHT22;7052;51.050;3.716;2023-11-18T05:38:30;8.00;99.90
13960;DHT22;7052;51.050;3.716;2023-11-18T05:41:00;8.10;99.90
13960;DHT22;7052;51.050;3.716;2023-11-18T05:43:31;8.00;99.90
13960;DHT22;7052;51.050;3.716;2023-11-18T05:46:05;8.10;99.90
13960;DHT22;7052;51.050;3.716;2023-11-18T05:48:46;8.10;99.90
13960;DHT22;7052;51.050;3.716;2023-11-18T05:51:13;8.10;99.90
13960;DHT22;7052;51.050;3.716;2023-11-18T05:53:41;8.10;99.90
13960;DHT22;7052;51.050;3.716;2023-11-18T05:56:12;8.10;99.90
13960;DHT22;7052;51.050;3.716;2023-11-18T05:58:45;8.10;99.90
13960;DHT22;7052;51.050;3.716;2023-11-18T06:01:16;8.10;99.90
13960;DHT22;7052;51.050;3.716;2023-11-18T06:03:46;8.10;99.90
13960;DHT22;7052;51.050;3.716;2023-11-18T06:06:15;8.10;99.90
13960;DHT22;7052;51.050;3.716;2023-11-18T06:08:43;8.10;99.90
13960;DHT22;7052;51.050;3.716;2023-11-18T06:11:15;8.10;99.90
13960;DHT22;7052;51.050;3.716;2023-11-18T06:13:51;8.00;99.90
13960;DHT22;7052;51.050;3.716;2023-11-18T06:16:21;8.30;99.90
13960;DHT22;7052;51.050;3.716;2023-11-18T06:18:51;8.10;99.90
13960;DHT22;7052;51.050;3.716;2023-11-18T06:21:22;8.10;99.90
13960;DHT22;7052;51.050;3.716;2023-11-18T06:23:58;8.10;99.90
13960;DHT22;7052;51.050;3.716;2023-11-18T06:26:26;8.20;99.90
13960;DHT22;7052;51.050;3.716;2023-11-18T06:28:54;8.20;99.90
13960;DHT22;7052;51.050;3.716;2023-11-18T06:31:24;8.20;99.90
13960;DHT22;7052;51.050;3.716;2023-11-18T06:33:51;8.20;99.90
13960;DHT22;7052;51.050;3.716;2023-11-18T06:36:18;8.20;99.90
13960;DHT22;7052;51.050;3.716;2023-11-18T06:38:47;8.20;99.90
13960;DHT22;7052;51.050;3.716;2023-11-18T06:41:16;8.20;99.90
13960;DHT22;7052;51.050;3.716;2023-11-18T06:43:44;8.20;99.90
13960;DHT22;7052;51.050;3.716;2023-11-18T06:46:32;8.20;99.90
13960;DHT22;7052;51.050;3.716;2023-11-18T06:49:00;8.20;99.90
13960;DHT22;7052;51.050;3.716;2023-11-18T06:51:33;8.20;99.90
13960;DHT22;7052;51.050;3.716;2023-11-18T06:54:01;8.30;99.90
13960;DHT22;7052;51.050;3.716;2023-11-18T06:56:34;8.30;99.90
13960;DHT22;7052;51.050;3.716;2023-11-18T06:59:02;8.20;99.90
13960;DHT22;7052;51.050;3.716;2023-11-18T07:01:31;8.30;99.90
13960;DHT22;7052;51.050;3.716;2023-11-18T07:04:01;8.30;99.90
13960;DHT22;7052;51.050;3.716;2023-11-18T07:06:30;8.40;99.90
13960;DHT22;7052;51.050;3.716;2023-11-18T07:08:58;8.30;99.90
13960;DHT22;7052;51.050;3.716;2023-11-18T07:11:26;8.30;99.90
13960;DHT22;7052;51.050;3.716;2023-11-18T07:13:53;8.30;99.90
13960;DHT22;7052;51.050;3.716;2023-11-18T07:16:23;8.40;99.90
13960;DHT22;7052;51.050;3.716;2023-11-18T07:18:52;8.30;99.90
13960;DHT22;7052;51.050;3.716;2023-11-18T07:21:19;8.20;99.90
13960;DHT22;7052;51.050;3.716;2023-11-18T07:23:46;8.20;99.90
13960;DHT22;7052;51.050;3.716;2023-11-18T07:26:14;8.20;99.90
13960;DHT22;7052;51.050;3.716;2023-11-18T07:28:41;8.20;99.90
13960;DHT22;7052;51.050;3.716;2023-11-18T07:31:09;8.20;99.90
13960;DHT22;7052;51.050;3.716;2023-11-18T07:33:36;8.20;99.90
13960;DHT22;7052;51.050;3.716;2023-11-18T07:36:05;8.20;99.90
13960;DHT22;7052;51.050;3.716;2023-11-18T07:38:36;8.20;99.90
13960;DHT22;7052;51.050;3.716;2023-11-18T07:41:05;8.20;99.90
13960;DHT22;7052;51.050;3.716;2023-11-18T07:43:34;8.20;99.90
13960;DHT22;7052;51.050;3.716;2023-11-18T07:46:01;8.20;99.90
13960;DHT22;7052;51.050;3.716;2023-11-18T07:48:39;8.20;99.90
13960;DHT22;7052;51.050;3.716;2023-11-18T07:51:09;8.20;99.90
13960;DHT22;7052;51.050;3.716;2023-11-18T07:53:38;8.30;99.90
13960;DHT22;7052;51.050;3.716;2023-11-18T07:56:12;8.20;99.90
13960;DHT22;7052;51.050;3.716;2023-11-18T07:58:41;8.20;99.90
13960;DHT22;7052;51.050;3.716;2023-11-18T08:01:13;8.20;99.90
13960;DHT22;7052;51.050;3.716;2023-11-18T08:03:44;8.20;99.90
13960;DHT22;7052;51.050;3.716;2023-11-18T08:06:15;8.20;99.90
13960;DHT22;7052;51.050;3.716;2023-11-18T08:08:43;8.20;99.90
13960;DHT22;7052;51.050;3.716;2023-11-18T08:11:11;8.20;99.90
13960;DHT22;7052;51.050;3.716;2023-11-18T08:13:43;8.30;99.90
13960;DHT22;7052;51.050;3.716;2023-11-18T08:16:11;8.30;99.90
13960;DHT22;7052;51.050;3.716;2023-11-18T08:18:41;8.20;99.90
13960;DHT22;7052;51.050;3.716;2023-11-18T08:21:08;8.30;99.90
13960;DHT22;7052;51.050;3.716;2023-11-18T08:23:39;8.30;99.90
13960;DHT22;7052;51.050;3.716;2023-11-18T08:26:07;8.30;99.90
13960;DHT22;7052;51.050;3.716;2023-11-18T08:28:36;8.40;99.90
13960;DHT22;7052;51.050;3.716;2023-11-18T08:31:04;8.40;99.90
13960;DHT22;7052;51.050;3.716;2023-11-18T08:33:34;8.40;99.90
13960;DHT22;7052;51.050;3.716;2023-11-18T08:36:01;8.40;99.90
13960;DHT22;7052;51.050;3.716;2023-11-18T08:38:29;8.40;99.90
13960;DHT22;7052;51.050;3.716;2023-11-18T08:41:00;8.40;99.90
13960;DHT22;7052;51.050;3.716;2023-11-18T08:43:27;8.40;99.90
13960;DHT22;7052;51.050;3.716;2023-11-18T08:45:54;8.50;99.90
13960;DHT22;7052;51.050;3.716;2023-11-18T08:48:23;8.50;99.90
13960;DHT22;7052;51.050;3.716;2023-11-18T08:50:50;8.50;99.90
13960;DHT22;7052;51.050;3.716;2023-11-18T08:53:17;8.50;99.90
13960;DHT22;7052;51.050;3.716;2023-11-18T08:55:44;8.50;99.90
13960;DHT22;7052;51.050;3.716;2023-11-18T08:58:17;8.60;99.90
13960;DHT22;7052;51.050;3.716;2023-11-18T09:00:53;8.70;99.90
13960;DHT22;7052;51.050;3.716;2023-11-18T09:03:31;8.70;99.90
13960;DHT22;7052;51.050;3.716;2023-11-18T09:06:02;8.70;99.90
13960;DHT22;7052;51.050;3.716;2023-11-18T09:08:31;8.70;99.90
13960;DHT22;7052;51.050;3.716;2023-11-18T09:11:01;8.70;99.90
13960;DHT22;7052;51.050;3.716;2023-11-18T09:13:33;8.70;99.90
13960;DHT22;7052;51.050;3.716;2023-11-18T09:16:04;8.70;99.90
13960;DHT22;7052;51.050;3.716;2023-11-18T09:18:34;8.70;99.90
13960;DHT22;7052;51.050;3.716;2023-11-18T09:21:01;8.70;99.90
13960;DHT22;7052;51.050;3.716;2023-11-18T09:23:31;8.70;99.90
13960;DHT22;7052;51.050;3.716;2023-11-18T09:26:00;8.80;99.90
13960;DHT22;7052;51.050;3.716;2023-11-18T09:28:29;8.70;99.90
13960;DHT22;7052;51.050;3.716;2023-11-18T09:30:57;8.80;99.90
13960;DHT22;7052;51.050;3.716;2023-11-18T09:33:29;8.80;99.90
13960;DHT22;7052;51.050;3.716;2023-11-18T09:35:59;8.80;99.90
13960;DHT22;7052;51.050;3.716;2023-11-18T09:38:28;8.80;99.90
13960;DHT22;7052;51.050;3.716;2023-11-18T09:40:57;8.80;99.90
13960;DHT22;7052;51.050;3.716;2023-11-18T09:43:29;8.70;99.90
13960;DHT22;7052;51.050;3.716;2023-11-18T09:46:06;8.80;99.90
13960;DHT22;7052;51.050;3.716;2023-11-18T09:48:41;8.80;99.90
13960;DHT22;7052;51.050;3.716;2023-11-18T09:51:17;8.80;99.90
13960;DHT22;7052;51.050;3.716;2023-11-18T09:53:49;8.80;99.90
13960;DHT22;7052;51.050;3.716;2023-11-18T09:56:22;8.80;99.90
13960;DHT22;7052;51.050;3.716;2023-11-18T09:59:04;8.80;99.90
13960;DHT22;7052;51.050;3.716;2023-11-18T10:01:35;8.90;99.90
13960;DHT22;7052;51.050;3.716;2023-11-18T10:04:05;8.90;99.90
13960;DHT22;7052;51.050;3.716;2023-11-18T10:06:36;8.90;99.90
13960;DHT22;7052;51.050;3.716;2023-11-18T10:09:06;8.90;99.90
13960;DHT22;7052;51.050;3.716;2023-11-18T10:11:42;8.90;99.90
13960;DHT22;7052;51.050;3.716;2023-11-18T10:14:13;8.90;99.90
13960;DHT22;7052;51.050;3.716;2023-11-18T10:16:43;8.90;99.90
13960;DHT22;7052;51.050;3.716;2023-11-18T10:19:16;8.90;99.90
13960;DHT22;7052;51.050;3.716;2023-11-18T10:21:43;8.90;99.90
13960;DHT22;7052;51.050;3.716;2023-11-18T10:24:14;8.90;99.90
13960;DHT22;7052;51.050;3.716;2023-11-18T10:26:46;8.80;99.90
13960;DHT22;7052;51.050;3.716;2023-11-18T10:29:19;8.80;99.90
13960;DHT22;7052;51.050;3.716;2023-11-18T10:31:48;8.90;99.90
13960;DHT22;7052;51.050;3.716;2023-11-18T10:34:19;8.80;99.90
13960;DHT22;7052;51.050;3.716;2023-11-18T10:36:59;8.80;99.90
13960;DHT22;7052;51.050;3.716;2023-11-18T10:39:31;8.80;99.90
13960;DHT22;7052;51.050;3.716;2023-11-18T10:42:01;8.80;99.90
13960;DHT22;7052;51.050;3.716;2023-11-18T10:44:30;8.90;99.90
13960;DHT22;7052;51.050;3.716;2023-11-18T10:46:57;8.90;99.90
13960;DHT22;7052;51.050;3.716;2023-11-18T10:49:26;9.00;99.90
13960;DHT22;7052;51.050;3.716;2023-11-18T10:51:55;9.00;99.90
13960;DHT22;7052;51.050;3.716;2023-11-18T10:54:24;9.00;99.90
13960;DHT22;7052;51.050;3.716;2023-11-18T10:56:52;9.00;99.90
13960;DHT22;7052;51.050;3.716;2023-11-18T10:59:22;9.10;99.90
13960;DHT22;7052;51.050;3.716;2023-11-18T11:01:51;9.10;99.90
13960;DHT22;7052;51.050;3.716;2023-11-18T11:04:23;9.10;99.90
13960;DHT22;7052;51.050;3.716;2023-11-18T11:06:51;9.20;99.90
13960;DHT22;7052;51.050;3.716;2023-11-18T11:09:26;9.10;99.90
13960;DHT22;7052;51.050;3.716;2023-11-18T11:11:55;9.10;99.90
13960;DHT22;7052;51.050;3.716;2023-11-18T11:14:33;9.10;99.90
13960;DHT22;7052;51.050;3.716;2023-11-18T11:17:12;9.10;99.90
13960;DHT22;7052;51.050;3.716;2023-11-18T11:19:48;9.20;99.90
13960;DHT22;7052;51.050;3.716;2023-11-18T11:22:24;9.20;99.90
13960;DHT22;7052;51.050;3.716;2023-11-18T11:25:03;9.30;99.90
13960;DHT22;7052;51.050;3.716;2023-11-18T11:27:44;9.20;99.90
13960;DHT22;7052;51.050;3.716;2023-11-18T11:30:22;9.20;99.90
13960;DHT22;7052;51.050;3.716;2023-11-18T11:32:53;9.20;99.90
13960;DHT22;7052;51.050;3.716;2023-11-18T11:35:32;9.10;99.90
13960;DHT22;7052;51.050;3.716;2023-11-18T11:38:02;9.10;99.90
13960;DHT22;7052;51.050;3.716;2023-11-18T11:40:36;9.10;99.90
13960;DHT22;7052;51.050;3.716;2023-11-18T11:43:06;9.20;99.90
13960;DHT22;7052;51.050;3.716;2023-11-18T11:45:36;9.30;99.90
13960;DHT22;7052;51.050;3.716;2023-11-18T11:48:07;9.20;99.90
13960;DHT22;7052;51.050;3.716;2023-11-18T11:51:05;9.20;99.90
13960;DHT22;7052;51.050;3.716;2023-11-18T11:53:44;9.30;99.90
13960;DHT22;7052;51.050;3.716;2023-11-18T11:56:16;9.40;99.90
13960;DHT22;7052;51.050;3.716;2023-11-18T11:58:50;9.30;99.90
13960;DHT22;7052;51.050;3.716;2023-11-18T12:01:36;9.30;99.90
13960;DHT22;7052;51.050;3.716;2023-11-18T12:04:08;9.30;99.90
13960;DHT22;7052;51.050;3.716;2023-11-18T12:06:41;9.40;99.90
13960;DHT22;7052;51.050;3.716;2023-11-18T12:09:10;9.40;99.90
13960;DHT22;7052;51.050;3.716;2023-11-18T12:11:45;9.40;99.90
13960;DHT22;7052;51.050;3.716;2023-11-18T12:14:15;9.40;99.90
13960;DHT22;7052;51.050;3.716;2023-11-18T12:17:01;9.40;99.90
13960;DHT22;7052;51.050;3.716;2023-11-18T12:19:37;9.40;99.90
13960;DHT22;7052;51.050;3.716;2023-11-18T12:22:18;9.40;99.90
13960;DHT22;7052;51.050;3.716;2023-11-18T12:27:57;9.50;99.90
13960;DHT22;7052;51.050;3.716;2023-11-18T12:30:48;9.50;99.90
13960;DHT22;7052;51.050;3.716;2023-11-18T12:34:02;9.50;99.90
13960;DHT22;7052;51.050;3.716;2023-11-18T12:36:56;9.50;99.90
13960;DHT22;7052;51.050;3.716;2023-11-18T12:43:01;9.50;99.90
13960;DHT22;7052;51.050;3.716;2023-11-18T12:46:06;9.50;99.90
13960;DHT22;7052;51.050;3.716;2023-11-18T12:48:43;9.50;99.90
13960;DHT22;7052;51.050;3.716;2023-11-18T12:51:12;9.50;99.90
13960;DHT22;7052;51.050;3.716;2023-11-18T12:53:47;9.60;99.90
13960;DHT22;7052;51.050;3.716;2023-11-18T12:56:18;9.60;99.90
13960;DHT22;7052;51.050;3.716;2023-11-18T12:58:45;9.60;99.90
13960;DHT22;7052;51.050;3.716;2023-11-18T13:01:14;9.60;99.90
13960;DHT22;7052;51.050;3.716;2023-11-18T13:03:41;9.60;99.90
13960;DHT22;7052;51.050;3.716;2023-11-18T13:06:11;9.70;99.90
13960;DHT22;7052;51.050;3.716;2023-11-18T13:08:39;9.70;99.90
13960;DHT22;7052;51.050;3.716;2023-11-18T13:11:16;9.70;99.90
13960;DHT22;7052;51.050;3.716;2023-11-18T13:13:49;9.40;99.90
13960;DHT22;7052;51.050;3.716;2023-11-18T13:16:21;9.70;99.90
13960;DHT22;7052;51.050;3.716;2023-11-18T13:18:50;9.70;99.90
13960;DHT22;7052;51.050;3.716;2023-11-18T13:21:22;9.80;99.90
13960;DHT22;7052;51.050;3.716;2023-11-18T13:23:53;9.80;99.90
13960;DHT22;7052;51.050;3.716;2023-11-18T13:26:41;9.80;99.90
13960;DHT22;7052;51.050;3.716;2023-11-18T13:29:10;9.80;99.90
13960;DHT22;7052;51.050;3.716;2023-11-18T13:31:38;9.80;99.90
13960;DHT22;7052;51.050;3.716;2023-11-18T13:34:06;9.80;99.90
13960;DHT22;7052;51.050;3.716;2023-11-18T13:36:38;9.80;99.90
13960;DHT22;7052;51.050;3.716;2023-11-18T13:39:06;9.80;99.90
13960;DHT22;7052;51.050;3.716;2023-11-18T13:41:35;9.80;99.90
13960;DHT22;7052;51.050;3.716;2023-11-18T13:44:03;9.80;99.90
13960;DHT22;7052;51.050;3.716;2023-11-18T13:46:31;9.80;99.90
13960;DHT22;7052;51.050;3.716;2023-11-18T13:48:58;9.80;99.90
13960;DHT22;7052;51.050;3.716;2023-11-18T13:51:27;9.90;99.90
13960;DHT22;7052;51.050;3.716;2023-11-18T13:53:55;9.90;99.90
13960;DHT22;7052;51.050;3.716;2023-11-18T13:56:22;10.00;99.90
13960;DHT22;7052;51.050;3.716;2023-11-18T13:58:49;10.00;99.90
13960;DHT22;7052;51.050;3.716;2023-11-18T14:01:24;10.00;99.90
13960;DHT22;7052;51.050;3.716;2023-11-18T14:03:53;10.00;99.90
13960;DHT22;7052;51.050;3.716;2023-11-18T14:06:22;10.00;99.90
13960;DHT22;7052;51.050;3.716;2023-11-18T14:08:56;10.10;99.90
13960;DHT22;7052;51.050;3.716;2023-11-18T14:11:25;10.10;99.90
13960;DHT22;7052;51.050;3.716;2023-11-18T14:13:57;10.10;99.90
13960;DHT22;7052;51.050;3.716;2023-11-18T14:16:30;10.10;99.90
13960;DHT22;7052;51.050;3.716;2023-11-18T14:18:57;10.20;99.90
13960;DHT22;7052;51.050;3.716;2023-11-18T14:21:39;10.30;99.90
13960;DHT22;7052;51.050;3.716;2023-11-18T14:24:11;10.20;99.90
13960;DHT22;7052;51.050;3.716;2023-11-18T14:26:41;10.20;99.90
13960;DHT22;7052;51.050;3.716;2023-11-18T14:29:12;10.30;99.90
13960;DHT22;7052;51.050;3.716;2023-11-18T14:31:41;10.30;99.90
13960;DHT22;7052;51.050;3.716;2023-11-18T14:34:11;10.30;99.90
13960;DHT22;7052;51.050;3.716;2023-11-18T14:36:38;10.30;99.90
13960;DHT22;7052;51.050;3.716;2023-11-18T14:39:06;10.30;99.90
13960;DHT22;7052;51.050;3.716;2023-11-18T14:41:35;10.30;99.90
13960;DHT22;7052;51.050;3.716;2023-11-18T14:44:11;10.30;99.90
13960;DHT22;7052;51.050;3.716;2023-11-18T14:46:44;10.40;99.90
13960;DHT22;7052;51.050;3.716;2023-11-18T14:49:15;10.40;99.90
13960;DHT22;7052;51.050;3.716;2023-11-18T14:51:43;10.40;99.90
13960;DHT22;7052;51.050;3.716;2023-11-18T14:54:12;10.40;99.90
13960;DHT22;7052;51.050;3.716;2023-11-18T14:56:41;10.40;99.90
13960;DHT22;7052;51.050;3.716;2023-11-18T14:59:09;10.40;99.90
13960;DHT22;7052;51.050;3.716;2023-11-18T15:01:37;10.40;99.90
13960;DHT22;7052;51.050;3.716;2023-11-18T15:04:09;10.40;99.90
13960;DHT22;7052;51.050;3.716;2023-11-18T15:06:37;10.40;99.90
13960;DHT22;7052;51.050;3.716;2023-11-18T15:09:05;10.40;99.90
13960;DHT22;7052;51.050;3.716;2023-11-18T15:11:36;10.50;99.90
13960;DHT22;7052;51.050;3.716;2023-11-18T15:14:04;10.50;99.90
13960;DHT22;7052;51.050;3.716;2023-11-18T15:16:33;10.50;99.90
13960;DHT22;7052;51.050;3.716;2023-11-18T15:19:01;10.50;99.90
13960;DHT22;7052;51.050;3.716;2023-11-18T15:21:31;10.50;99.90
13960;DHT22;7052;51.050;3.716;2023-11-18T15:24:00;10.50;99.90
13960;DHT22;7052;51.050;3.716;2023-11-18T15:26:29;10.60;99.90
13960;DHT22;7052;51.050;3.716;2023-11-18T15:28:57;10.60;99.90
13960;DHT22;7052;51.050;3.716;2023-11-18T15:31:25;10.60;99.90
13960;DHT22;7052;51.050;3.716;2023-11-18T15:33:55;10.70;99.90
13960;DHT22;7052;51.050;3.716;2023-11-18T15:36:25;10.70;99.90
13960;DHT22;7052;51.050;3.716;2023-11-18T15:38:55;10.70;99.90
13960;DHT22;7052;51.050;3.716;2023-11-18T15:41:29;10.80;99.90
13960;DHT22;7052;51.050;3.716;2023-11-18T15:43:57;10.80;99.90
13960;DHT22;7052;51.050;3.716;2023-11-18T15:46:25;10.80;99.90
13960;DHT22;7052;51.050;3.716;2023-11-18T15:48:53;10.90;99.90
13960;DHT22;7052;51.050;3.716;2023-11-18T15:51:21;10.80;99.90
13960;DHT22;7052;51.050;3.716;2023-11-18T15:53:51;10.80;99.90
13960;DHT22;7052;51.050;3.716;2023-11-18T15:56:22;10.90;99.90
13960;DHT22;7052;51.050;3.716;2023-11-18T15:58:51;11.00;99.90
13960;DHT22;7052;51.050;3.716;2023-11-18T16:01:18;11.00;99.90
13960;DHT22;7052;51.050;3.716;2023-11-18T16:03:45;11.00;99.90
13960;DHT22;7052;51.050;3.716;2023-11-18T16:06:14;11.00;99.90
13960;DHT22;7052;51.050;3.716;2023-11-18T16:08:44;11.00;99.90
13960;DHT22;7052;51.050;3.716;2023-11-18T16:11:15;11.00;99.90
13960;DHT22;7052;51.050;3.716;2023-11-18T16:13:47;11.10;99.90
13960;DHT22;7052;51.050;3.716;2023-11-18T16:16:13;11.10;99.90
13960;DHT22;7052;51.050;3.716;2023-11-18T16:18:40;11.10;99.90
13960;DHT22;7052;51.050;3.716;2023-11-18T16:21:09;11.10;99.90
13960;DHT22;7052;51.050;3.716;2023-11-18T16:23:44;11.10;99.90
13960;DHT22;7052;51.050;3.716;2023-11-18T16:26:11;11.10;99.90
13960;DHT22;7052;51.050;3.716;2023-11-18T16:28:38;11.10;99.90
13960;DHT22;7052;51.050;3.716;2023-11-18T16:31:07;11.20;99.90